Terminal Aerodrome Forecast
Issued by NWS Midland/Odessa, TX

Home | Current Version | Previous Version | Text Only | Print | Product List | Glossary On
Versions: 1 2 3 4 5 6 7 8 9 10 11 12 13 14 15 16 17 18 19 20 21 22 23
000
FTUS44 KMAF 021100
TAFMAF
TAF
KMAF 021125Z 0212/0312 05010KT 3SM BR OVC004
     FM021600 07010KT 3SM BR OVC009
     FM021800 10008KT P6SM OVC015
     FM022000 13008KT P6SM OVC020
     FM022200 13007KT P6SM SCT025=

USA.gov is the U.S. government's official web portal to all federal, state and local government web resources and services.